createdAt,value
2022-11-22T00:00:43.900Z,12.33
2022-11-22T00:03:11.166Z,12.73
2022-11-22T00:05:38.413Z,13.37
2022-11-22T00:08:05.961Z,12.10
2022-11-22T00:10:33.614Z,12.90
2022-11-22T00:13:01.370Z,12.70
2022-11-22T00:15:29.675Z,13.10
2022-11-22T00:17:57.198Z,12.20
2022-11-22T00:20:24.924Z,12.37
2022-11-22T00:22:52.305Z,10.57
2022-11-22T00:25:19.542Z,12.33
2022-11-22T00:27:46.819Z,12.40
2022-11-22T00:30:14.040Z,12.53
2022-11-22T00:32:41.290Z,12.67
2022-11-22T00:35:09.733Z,12.10
2022-11-22T00:37:37.164Z,13.47
2022-11-22T00:40:05.873Z,13.23
2022-11-22T00:42:33.043Z,11.87
2022-11-22T00:45:00.231Z,12.50
2022-11-22T00:47:27.473Z,12.87
2022-11-22T00:49:54.624Z,12.83
2022-11-22T00:52:21.819Z,14.87
2022-11-22T00:54:54.558Z,11.67
2022-11-22T00:57:22.797Z,12.27
2022-11-22T00:59:50.021Z,11.20
2022-11-22T01:02:17.229Z,11.60
2022-11-22T01:04:44.616Z,15.10
2022-11-22T01:07:12.076Z,13.47
2022-11-22T01:09:39.264Z,14.13
2022-11-22T01:12:06.867Z,14.23
2022-11-22T01:14:34.485Z,12.30
2022-11-22T01:17:02.235Z,12.93
2022-11-22T01:19:30.129Z,10.57
2022-11-22T01:21:57.623Z,12.30
2022-11-22T01:24:25.051Z,12.20
2022-11-22T01:26:52.366Z,13.73
2022-11-22T01:29:19.625Z,14.00
2022-11-22T01:31:46.811Z,14.17
2022-11-22T01:34:14.116Z,14.07
2022-11-22T01:36:41.320Z,13.50
2022-11-22T01:39:08.695Z,13.10
2022-11-22T01:41:35.882Z,14.30
2022-11-22T01:44:24.379Z,8.77
2022-11-22T01:46:56.391Z,13.77
2022-11-22T01:49:35.683Z,14.27
2022-11-22T01:52:10.087Z,13.87
2022-11-22T01:54:41.786Z,14.13
2022-11-22T01:57:15.141Z,15.07
2022-11-22T01:59:47.333Z,12.77
2022-11-22T02:02:14.589Z,13.40
2022-11-22T02:04:43.661Z,14.20
2022-11-22T02:07:21.242Z,15.50
2022-11-22T02:09:52.128Z,15.23
2022-11-22T02:12:26.471Z,14.60
2022-11-22T02:14:54.040Z,13.20
2022-11-22T02:17:21.609Z,13.10
2022-11-22T02:19:50.613Z,12.73
2022-11-22T02:22:25.179Z,14.90
2022-11-22T02:24:59.470Z,16.30
2022-11-22T02:27:26.838Z,16.30
2022-11-22T02:29:54.517Z,13.50
2022-11-22T02:32:21.729Z,14.93
2022-11-22T02:34:50.933Z,15.50
2022-11-22T02:37:23.927Z,13.90
2022-11-22T02:39:56.173Z,13.73
2022-11-22T02:42:25.304Z,14.30
2022-11-22T02:44:52.526Z,15.17
2022-11-22T02:47:19.977Z,17.20
2022-11-22T02:49:47.678Z,15.57
2022-11-22T02:52:18.704Z,12.90
2022-11-22T02:54:46.557Z,14.13
2022-11-22T02:57:14.096Z,16.87
2022-11-22T02:59:41.283Z,15.00
2022-11-22T03:02:08.743Z,17.40
2022-11-22T03:04:35.891Z,15.53
2022-11-22T03:07:04.366Z,13.83
2022-11-22T03:09:32.553Z,16.63
2022-11-22T03:11:59.982Z,15.77
2022-11-22T03:14:27.321Z,15.80
2022-11-22T03:16:54.707Z,15.60
2022-11-22T03:19:22.246Z,15.13
2022-11-22T03:21:50.813Z,15.10
2022-11-22T03:24:20.078Z,16.70
2022-11-22T03:26:50.589Z,15.37
2022-11-22T03:29:18.315Z,14.70
2022-11-22T03:31:45.544Z,15.80
2022-11-22T03:34:12.997Z,16.27
2022-11-22T03:36:40.167Z,16.30
2022-11-22T03:39:07.492Z,16.80
2022-11-22T03:41:34.735Z,12.40
2022-11-22T03:44:02.066Z,15.07
2022-11-22T03:46:29.405Z,16.03
2022-11-22T03:48:56.608Z,17.10
2022-11-22T03:51:23.769Z,13.90
2022-11-22T03:53:51.306Z,15.93
2022-11-22T03:56:18.637Z,15.30
2022-11-22T03:58:45.785Z,15.60
2022-11-22T04:01:16.564Z,17.80
2022-11-22T04:03:44.159Z,14.00
2022-11-22T04:06:11.353Z,13.43
2022-11-22T04:08:38.562Z,14.90
2022-11-22T04:11:05.724Z,16.57
2022-11-22T04:13:51.574Z,12.33
2022-11-22T04:16:18.702Z,15.50
2022-11-22T04:18:45.885Z,14.40
2022-11-22T04:21:31.854Z,15.37
2022-11-22T04:24:17.623Z,15.27
2022-11-22T04:26:45.197Z,12.17
2022-11-22T04:29:12.421Z,13.20
2022-11-22T04:31:58.837Z,15.47
2022-11-22T04:34:26.094Z,15.27
2022-11-22T04:36:53.402Z,15.77
2022-11-22T04:39:20.654Z,14.90
2022-11-22T04:42:07.776Z,14.93
2022-11-22T04:44:40.779Z,15.30
2022-11-22T04:47:09.709Z,16.60
2022-11-22T04:49:37.209Z,14.53
2022-11-22T04:52:23.626Z,15.47
2022-11-22T04:54:51.139Z,16.07
2022-11-22T04:57:18.271Z,14.40
2022-11-22T04:59:45.625Z,16.83
2022-11-22T05:02:12.748Z,14.97
2022-11-22T05:04:40.067Z,17.50
2022-11-22T05:07:07.475Z,15.50
2022-11-22T05:09:34.639Z,16.27
2022-11-22T05:12:01.960Z,16.77
2022-11-22T05:14:29.117Z,15.20
2022-11-22T05:16:56.296Z,16.10
2022-11-22T05:19:23.513Z,16.60
2022-11-22T05:21:50.965Z,14.73
2022-11-22T05:24:18.204Z,15.20
2022-11-22T05:26:45.372Z,17.40
2022-11-22T05:29:12.499Z,16.10
2022-11-22T05:31:40.598Z,15.13
2022-11-22T05:34:07.792Z,16.90
2022-11-22T05:36:35.543Z,17.77
2022-11-22T05:39:03.537Z,15.23
2022-11-22T05:41:31.045Z,17.00
2022-11-22T05:43:58.237Z,15.50
2022-11-22T05:46:27.884Z,14.60
2022-11-22T05:48:56.791Z,15.70
2022-11-22T05:51:33.604Z,17.47
2022-11-22T05:54:02.587Z,16.83
2022-11-22T05:56:29.849Z,17.00
2022-11-22T05:58:57.266Z,13.83
2022-11-22T06:01:25.170Z,18.17
2022-11-22T06:03:53.957Z,17.37
2022-11-22T06:06:21.553Z,16.40
2022-11-22T06:08:49.003Z,16.60
2022-11-22T06:11:22.029Z,18.37
2022-11-22T06:13:51.933Z,15.60
2022-11-22T06:16:19.208Z,16.10
2022-11-22T06:18:46.997Z,15.80
2022-11-22T06:21:20.594Z,18.20
2022-11-22T06:23:47.828Z,17.20
2022-11-22T06:26:18.219Z,15.70
2022-11-22T06:28:46.968Z,15.87
2022-11-22T06:31:23.082Z,15.83
2022-11-22T06:33:52.624Z,18.20
2022-11-22T06:36:26.038Z,17.30
2022-11-22T06:38:54.073Z,15.47
2022-11-22T06:41:23.431Z,15.67
2022-11-22T06:43:52.134Z,15.10
2022-11-22T06:46:21.809Z,14.57
2022-11-22T06:48:49.710Z,16.77
2022-11-22T06:51:26.121Z,18.93
2022-11-22T06:53:56.490Z,15.80
2022-11-22T06:56:26.563Z,16.90
2022-11-22T06:58:55.317Z,16.50
2022-11-22T07:01:25.347Z,18.27
2022-11-22T07:03:58.336Z,17.17
2022-11-22T07:06:38.730Z,18.07
2022-11-22T07:09:08.328Z,15.50
2022-11-22T07:11:36.191Z,16.53
2022-11-22T07:14:08.119Z,18.13
2022-11-22T07:16:37.188Z,17.30
2022-11-22T07:19:05.227Z,16.50
2022-11-22T07:21:32.587Z,18.27
2022-11-22T07:23:59.786Z,17.33
2022-11-22T07:26:28.324Z,16.50
2022-11-22T07:28:55.479Z,15.90
2022-11-22T07:31:22.696Z,16.40
2022-11-22T07:33:49.904Z,18.27
2022-11-22T07:36:19.547Z,15.40
2022-11-22T07:38:48.404Z,18.63
2022-11-22T07:41:17.448Z,16.27
2022-11-22T07:43:47.368Z,15.30
2022-11-22T07:46:21.980Z,16.73
2022-11-22T07:48:49.745Z,16.63
2022-11-22T07:51:17.603Z,18.20
2022-11-22T07:53:45.143Z,15.00
2022-11-22T07:56:12.475Z,15.73
2022-11-22T07:58:40.049Z,14.40
2022-11-22T08:01:12.960Z,16.93
2022-11-22T08:03:41.032Z,16.47
2022-11-22T08:06:10.235Z,17.77
2022-11-22T08:08:37.707Z,15.97
2022-11-22T08:11:05.713Z,17.47
2022-11-22T08:13:33.984Z,17.53
2022-11-22T08:16:07.767Z,17.40
2022-11-22T08:18:36.440Z,17.90
2022-11-22T08:21:12.146Z,16.70
2022-11-22T08:23:40.249Z,14.93
2022-11-22T08:26:10.572Z,19.97
2022-11-22T08:28:39.656Z,17.57
2022-11-22T08:31:16.103Z,18.67
2022-11-22T08:33:43.446Z,17.10
2022-11-22T08:36:10.948Z,15.23
2022-11-22T08:38:38.727Z,19.03
2022-11-22T08:41:07.106Z,19.10
2022-11-22T08:43:34.339Z,19.07
2022-11-22T08:46:02.546Z,20.03
2022-11-22T08:48:32.118Z,18.77
2022-11-22T08:51:05.690Z,17.93
2022-11-22T08:53:35.793Z,20.97
2022-11-22T08:56:04.998Z,19.83
2022-11-22T08:58:33.466Z,16.90
2022-11-22T09:01:09.341Z,16.23
2022-11-22T09:03:37.222Z,20.63
2022-11-22T09:09:22.103Z,19.23
2022-11-22T09:11:45.562Z,19.17
2022-11-22T09:14:13.159Z,21.07
2022-11-22T09:16:40.428Z,19.67
2022-11-22T09:19:07.619Z,18.27
2022-11-22T09:21:34.757Z,20.77
2022-11-22T09:24:02.267Z,15.80
2022-11-22T09:26:29.567Z,18.43
2022-11-22T09:28:57.080Z,21.70
2022-11-22T09:31:25.083Z,19.27
2022-11-22T09:33:52.306Z,15.10
2022-11-22T09:36:22.071Z,19.10
2022-11-22T09:38:51.189Z,21.67
2022-11-22T09:41:42.899Z,20.50
2022-11-22T09:44:28.336Z,19.37
2022-11-22T09:47:22.885Z,20.33
2022-11-22T09:50:12.034Z,22.03
2022-11-22T09:52:51.017Z,22.47
2022-11-22T09:55:36.835Z,20.13
2022-11-22T09:58:16.256Z,19.97
2022-11-22T10:00:49.155Z,17.77
2022-11-22T10:03:47.791Z,19.43
2022-11-22T10:06:37.213Z,18.90
2022-11-22T10:09:10.039Z,20.27
2022-11-22T10:11:49.218Z,19.37
2022-11-22T10:14:41.456Z,21.60
2022-11-22T10:17:17.597Z,17.07
2022-11-22T10:19:58.225Z,18.43
2022-11-22T10:22:29.634Z,17.67
2022-11-22T10:25:00.056Z,19.57
2022-11-22T10:27:32.815Z,18.60
2022-11-22T10:30:05.201Z,17.80
2022-11-22T10:32:41.048Z,20.57
2022-11-22T10:35:39.032Z,12.43
2022-11-22T10:38:45.011Z,19.00
2022-11-22T10:41:33.939Z,20.50
2022-11-22T10:44:24.937Z,14.67
2022-11-22T10:47:18.902Z,17.77
2022-11-22T10:50:10.318Z,16.33
2022-11-22T10:52:55.564Z,15.07
2022-11-22T10:55:54.135Z,14.40
2022-11-22T10:58:35.170Z,17.30
2022-11-22T11:01:29.474Z,16.70
2022-11-22T11:04:00.424Z,11.33
2022-11-22T11:12:55.571Z,16.07
2022-11-22T11:15:37.664Z,15.17
2022-11-22T11:18:22.501Z,16.67
2022-11-22T11:20:51.310Z,16.33
2022-11-22T11:23:18.553Z,16.73
2022-11-22T11:25:47.859Z,15.73
2022-11-22T11:28:18.748Z,18.60
2022-11-22T11:30:54.907Z,15.07
2022-11-22T11:33:27.842Z,17.00
2022-11-22T11:36:02.115Z,15.97
2022-11-22T11:38:33.029Z,18.03
2022-11-22T11:41:18.449Z,15.90
2022-11-22T11:43:46.678Z,16.17
2022-11-22T11:46:22.473Z,15.97
2022-11-22T11:48:51.895Z,15.70
2022-11-22T11:51:42.206Z,15.00
2022-11-22T11:54:13.984Z,17.20
2022-11-22T11:56:50.285Z,14.83
2022-11-22T11:59:19.634Z,15.90
2022-11-22T12:02:01.500Z,15.10
2022-11-22T12:04:33.334Z,16.53
2022-11-22T12:07:22.571Z,14.67
2022-11-22T12:09:52.455Z,15.90
2022-11-22T12:12:29.735Z,16.20
2022-11-22T12:15:12.089Z,17.43
2022-11-22T12:18:08.904Z,15.80
2022-11-22T12:21:03.521Z,15.37
2022-11-22T12:23:50.618Z,17.13
2022-11-22T12:26:19.170Z,16.10
2022-11-22T12:28:47.321Z,17.10
2022-11-22T12:31:34.065Z,16.60
2022-11-22T12:34:10.463Z,15.00
2022-11-22T12:36:46.313Z,15.07
2022-11-22T12:39:23.161Z,16.40
2022-11-22T12:41:53.831Z,14.83
2022-11-22T12:44:33.788Z,15.17
2022-11-22T12:47:07.753Z,15.93
2022-11-22T12:49:53.441Z,14.90
2022-11-22T12:52:42.491Z,15.97
2022-11-22T12:55:19.412Z,14.43
2022-11-22T12:57:56.821Z,14.73
2022-11-22T13:00:26.164Z,14.87
2022-11-22T13:03:12.346Z,12.97
2022-11-22T13:05:51.407Z,15.80
2022-11-22T13:08:44.361Z,10.80
2022-11-22T13:11:30.309Z,15.80
2022-11-22T13:14:05.887Z,16.83
2022-11-22T13:16:34.904Z,14.20
2022-11-22T13:19:05.028Z,15.30
2022-11-22T13:21:51.371Z,15.00
2022-11-22T13:24:23.239Z,15.00
2022-11-22T13:27:09.963Z,16.43
2022-11-22T13:29:41.451Z,15.90
2022-11-22T13:32:11.601Z,15.60
2022-11-22T13:34:59.594Z,16.80
2022-11-22T13:37:28.638Z,15.17
2022-11-22T13:39:56.019Z,16.23
2022-11-22T13:42:27.286Z,16.33
2022-11-22T13:44:54.408Z,16.37
2022-11-22T13:47:43.401Z,15.40
2022-11-22T13:50:41.561Z,13.97
2022-11-22T13:53:30.599Z,15.27
2022-11-22T13:56:19.077Z,16.20
2022-11-22T13:58:57.518Z,16.73
2022-11-22T14:01:51.743Z,17.27
2022-11-22T14:04:26.585Z,17.07
2022-11-22T14:07:09.395Z,17.90
2022-11-22T14:09:44.266Z,15.87
2022-11-22T14:12:11.420Z,17.60
2022-11-22T14:15:04.926Z,18.00
2022-11-22T14:17:50.073Z,17.30
2022-11-22T14:20:36.422Z,16.67
2022-11-22T14:23:40.690Z,18.33
2022-11-22T14:26:35.935Z,16.83
2022-11-22T14:29:37.052Z,16.37
2022-11-22T14:32:16.823Z,17.37
2022-11-22T14:35:20.100Z,17.30
2022-11-22T14:38:29.062Z,17.77
2022-11-22T14:41:27.542Z,19.57
2022-11-22T14:44:10.302Z,18.97
2022-11-22T14:46:53.216Z,19.27
2022-11-22T14:49:45.532Z,17.40
2022-11-22T14:52:22.500Z,19.00
2022-11-22T14:54:54.585Z,19.40
2022-11-22T14:57:25.415Z,18.90
2022-11-22T15:00:17.792Z,19.67
2022-11-22T15:03:18.547Z,18.50
2022-11-22T15:09:12.792Z,19.80
2022-11-22T15:09:39.434Z,19.20
2022-11-22T15:12:19.136Z,19.37
2022-11-22T15:14:58.296Z,21.83
2022-11-22T15:57:44.872Z,19.47
2022-11-22T16:00:26.820Z,20.77
2022-11-22T16:02:58.057Z,20.53
2022-11-22T16:06:05.674Z,20.60
2022-11-22T16:08:29.353Z,11.37
2022-11-22T16:11:00.247Z,19.60
2022-11-22T16:13:29.284Z,20.37
2022-11-22T16:16:11.900Z,19.10
2022-11-22T16:18:40.496Z,21.13
2022-11-22T16:21:11.203Z,19.73
2022-11-22T16:23:39.587Z,21.60
2022-11-22T16:26:19.200Z,21.67
2022-11-22T16:28:51.143Z,20.50
2022-11-22T16:31:24.058Z,20.17
2022-11-22T16:33:52.631Z,21.40
2022-11-22T16:36:21.486Z,22.20
2022-11-22T16:38:48.983Z,22.47
2022-11-22T16:41:27.648Z,21.67
2022-11-22T16:44:11.011Z,22.40
2022-11-22T16:46:39.927Z,21.13
2022-11-22T16:49:21.472Z,20.20
2022-11-22T16:51:50.387Z,22.00
2022-11-22T16:54:20.003Z,19.17
2022-11-22T16:56:47.455Z,22.43
2022-11-22T16:59:14.665Z,20.77
2022-11-22T17:01:43.465Z,20.53
2022-11-22T17:04:23.664Z,22.20
2022-11-22T17:06:51.524Z,20.40
2022-11-22T17:09:19.193Z,22.13
2022-11-22T17:11:46.632Z,20.73
2022-11-22T17:14:15.843Z,20.97
2022-11-22T17:16:43.804Z,19.80
2022-11-22T17:21:58.436Z,19.10
2022-11-22T17:24:26.089Z,22.10
2022-11-22T17:26:53.437Z,22.00
2022-11-22T17:29:50.353Z,23.13
2022-11-22T17:32:14.615Z,22.20
2022-11-22T17:34:41.928Z,22.83
2022-11-22T17:37:12.085Z,21.83
2022-11-22T17:39:39.678Z,20.90
2022-11-22T17:42:07.061Z,20.03
2022-11-22T17:44:34.837Z,20.97
2022-11-22T17:47:02.150Z,24.37
2022-11-22T17:49:29.682Z,20.53
2022-11-22T17:51:57.545Z,20.83
2022-11-22T17:54:24.920Z,20.23
2022-11-22T17:56:52.231Z,20.10
2022-11-22T17:59:19.500Z,21.37
2022-11-22T18:01:46.895Z,23.40
2022-11-22T18:04:14.600Z,23.03
2022-11-22T18:06:41.888Z,22.87
2022-11-22T18:09:09.265Z,19.37
2022-11-22T18:11:36.513Z,22.60
2022-11-22T18:14:03.761Z,23.20
2022-11-22T18:16:31.119Z,21.97
2022-11-22T18:19:00.337Z,19.07
2022-11-22T18:21:29.177Z,22.70
2022-11-22T18:24:00.295Z,22.67
2022-11-22T18:26:43.795Z,22.03
2022-11-22T18:32:00.627Z,22.33
2022-11-22T18:34:28.619Z,22.13
2022-11-22T18:37:01.541Z,22.10
2022-11-22T18:39:32.408Z,21.10
2022-11-22T18:42:00.109Z,22.80
2022-11-22T18:44:27.429Z,23.03
2022-11-22T18:46:55.093Z,22.63
2022-11-22T18:49:22.520Z,23.37
2022-11-22T18:51:49.861Z,23.70
2022-11-22T18:54:18.586Z,25.30
2022-11-22T18:56:46.086Z,23.80
2022-11-22T18:59:14.038Z,23.67
2022-11-22T19:01:42.407Z,24.47
2022-11-22T19:04:13.517Z,24.53
2022-11-22T19:06:41.947Z,22.30
2022-11-22T19:09:09.928Z,24.60
2022-11-22T19:11:37.439Z,23.23
2022-11-22T19:14:05.116Z,25.37
2022-11-22T19:16:32.804Z,26.17
2022-11-22T19:19:00.782Z,23.53
2022-11-22T19:21:29.760Z,23.07
2022-11-22T19:23:57.381Z,24.00
2022-11-22T19:26:26.939Z,34.40
2022-11-22T19:28:55.970Z,29.10
2022-11-22T19:31:28.713Z,27.33
2022-11-22T19:34:01.263Z,28.93
2022-11-22T19:36:34.080Z,25.93
2022-11-22T19:39:03.979Z,24.73
2022-11-22T19:41:32.188Z,22.37
2022-11-22T19:44:00.487Z,24.40
2022-11-22T19:46:28.490Z,24.07
2022-11-22T19:48:59.749Z,24.50
2022-11-22T19:51:29.814Z,23.30
2022-11-22T19:53:59.395Z,25.30
2022-11-22T19:56:30.427Z,23.73
2022-11-22T19:58:59.390Z,25.63
2022-11-22T20:01:29.282Z,25.37
2022-11-22T20:04:00.536Z,23.00
2022-11-22T20:06:28.288Z,22.57
2022-11-22T20:09:07.039Z,24.93
2022-11-22T20:11:34.665Z,23.67
2022-11-22T20:14:02.460Z,25.53
2022-11-22T20:16:30.848Z,26.07
2022-11-22T20:19:04.635Z,24.20
2022-11-22T20:21:34.245Z,25.03
2022-11-22T20:24:02.421Z,24.33
2022-11-22T20:26:31.739Z,22.97
2022-11-22T20:29:05.725Z,23.37
2022-11-22T20:31:59.049Z,23.97
2022-11-22T20:34:29.570Z,23.07
2022-11-22T20:36:57.163Z,25.97
2022-11-22T20:39:24.511Z,25.53
2022-11-22T20:42:11.702Z,27.10
2022-11-22T20:44:39.074Z,22.20
2022-11-22T20:47:08.537Z,24.20
2022-11-22T20:49:38.808Z,23.90
2022-11-22T20:52:10.259Z,22.03
2022-11-22T20:54:38.201Z,26.80
2022-11-22T20:57:05.606Z,23.73
2022-11-22T20:59:32.871Z,24.20
2022-11-22T21:02:00.145Z,23.40
2022-11-22T21:04:28.027Z,23.43
2022-11-22T21:06:57.593Z,23.90
2022-11-22T21:09:24.789Z,25.90
2022-11-22T21:11:52.315Z,21.90
2022-11-22T21:14:20.794Z,23.50
2022-11-22T21:16:47.986Z,21.13
2022-11-22T21:19:15.327Z,22.40
2022-11-22T21:21:42.532Z,22.23
2022-11-22T21:24:13.185Z,24.03
2022-11-22T21:26:40.647Z,24.57
2022-11-22T21:29:15.938Z,22.97
2022-11-22T21:31:43.897Z,23.10
2022-11-22T21:34:11.517Z,22.97
2022-11-22T21:36:38.728Z,23.03
2022-11-22T21:39:06.345Z,22.43
2022-11-22T21:41:41.462Z,24.93
2022-11-22T21:44:10.427Z,22.47
2022-11-22T21:46:37.800Z,24.33
2022-11-22T21:49:05.170Z,22.20
2022-11-22T21:51:32.472Z,23.30
2022-11-22T21:54:00.993Z,21.73
2022-11-22T21:56:28.546Z,22.57
2022-11-22T21:58:58.369Z,22.97
2022-11-22T22:01:26.170Z,22.40
2022-11-22T22:03:53.905Z,20.57
2022-11-22T22:06:21.330Z,22.60
2022-11-22T22:08:48.559Z,22.33
2022-11-22T22:11:16.019Z,20.23
2022-11-22T22:13:43.428Z,23.80
2022-11-22T22:16:19.250Z,21.80
2022-11-22T22:18:47.652Z,23.03
2022-11-22T22:21:17.063Z,23.00
2022-11-22T22:23:45.631Z,21.87
2022-11-22T22:26:17.473Z,20.97
2022-11-22T22:28:45.847Z,21.43
2022-11-22T22:31:17.211Z,20.20
2022-11-22T22:33:45.511Z,21.70
2022-11-22T22:36:13.083Z,20.60
2022-11-22T22:38:40.712Z,21.47
2022-11-22T22:41:11.111Z,20.90
2022-11-22T22:43:41.951Z,21.70
2022-11-22T22:46:20.769Z,20.37
2022-11-22T22:48:49.042Z,20.00
2022-11-22T22:51:18.619Z,19.50
2022-11-22T22:53:46.572Z,20.77
2022-11-22T22:56:15.818Z,19.87
2022-11-22T22:58:43.289Z,21.27
2022-11-22T23:01:19.128Z,20.33
2022-11-22T23:03:57.633Z,18.00
2022-11-22T23:06:30.212Z,18.00
2022-11-22T23:08:58.358Z,18.90
2022-11-22T23:11:47.322Z,18.50
2022-11-22T23:14:17.939Z,18.47
2022-11-22T23:16:45.353Z,19.27
2022-11-22T23:19:13.131Z,19.27
2022-11-22T23:21:40.382Z,17.00
2022-11-22T23:24:08.099Z,18.13
2022-11-22T23:26:35.948Z,16.40
2022-11-22T23:29:03.369Z,19.33
2022-11-22T23:31:30.561Z,16.90
2022-11-22T23:34:00.203Z,16.67
2022-11-22T23:36:28.826Z,14.53
2022-11-22T23:38:56.176Z,14.10
2022-11-22T23:41:24.727Z,15.20
2022-11-22T23:43:54.106Z,14.80
2022-11-22T23:46:22.416Z,15.50
2022-11-22T23:48:53.693Z,13.47
2022-11-22T23:51:21.199Z,13.10
2022-11-22T23:53:48.405Z,14.83
2022-11-22T23:56:21.589Z,13.23
2022-11-22T23:58:50.283Z,13.03
